createdAt,value
2023-02-09T00:00:14.843Z,100817.97
2023-02-09T00:02:47.886Z,100808.97
2023-02-09T00:05:19.356Z,100802.44
2023-02-09T00:07:50.578Z,100803.72
2023-02-09T00:10:21.638Z,100809.56
2023-02-09T00:13:11.095Z,100814.28
2023-02-09T00:15:42.520Z,100807.50
2023-02-09T00:18:13.620Z,100805.34
2023-02-09T00:20:44.967Z,100792.56
2023-02-09T00:23:16.337Z,100797.63
2023-02-09T00:25:47.559Z,100797.75
2023-02-09T00:28:18.530Z,100797.16
2023-02-09T00:30:49.917Z,100796.53
2023-02-09T00:33:21.515Z,100797.53
2023-02-09T00:35:53.135Z,100781.00
2023-02-09T00:38:25.517Z,100791.78
2023-02-09T00:40:56.593Z,100793.41
2023-02-09T00:43:27.569Z,100800.66
2023-02-09T00:45:58.902Z,100794.06
2023-02-09T00:48:30.640Z,100788.75
2023-02-09T00:51:01.958Z,100807.56
2023-02-09T00:53:33.391Z,100807.28
2023-02-09T00:56:04.509Z,100815.50
2023-02-09T00:58:35.842Z,100806.94
2023-02-09T01:01:06.960Z,100819.25
2023-02-09T01:03:38.272Z,100817.59
2023-02-09T01:06:09.431Z,100819.66
2023-02-09T01:08:40.814Z,100793.28
2023-02-09T01:11:13.457Z,100818.59
2023-02-09T01:13:46.307Z,100814.56
2023-02-09T01:16:20.296Z,100810.53
2023-02-09T01:18:51.777Z,100819.25
2023-02-09T01:21:24.510Z,100817.75
2023-02-09T01:23:55.566Z,100810.50
2023-02-09T01:26:26.837Z,100809.00
2023-02-09T01:28:58.035Z,100811.00
2023-02-09T01:31:30.273Z,100811.44
2023-02-09T01:34:03.901Z,100814.09
2023-02-09T01:36:35.734Z,100803.81
2023-02-09T01:39:07.276Z,100813.91
2023-02-09T01:41:37.729Z,100813.47
2023-02-09T01:44:14.779Z,100797.38
2023-02-09T01:46:46.579Z,100801.38
2023-02-09T01:49:21.005Z,100802.88
2023-02-09T01:51:55.306Z,100805.50
2023-02-09T01:54:40.598Z,100785.50
2023-02-09T01:57:14.647Z,100767.81
2023-02-09T01:59:50.488Z,100781.91
2023-02-09T02:02:22.460Z,100778.78
2023-02-09T02:04:54.223Z,100784.53
2023-02-09T02:07:40.661Z,100789.75
2023-02-09T02:10:12.565Z,100806.22
2023-02-09T02:12:45.598Z,100794.50
2023-02-09T02:15:17.161Z,100811.13
2023-02-09T02:18:23.608Z,100798.72
2023-02-09T02:21:30.632Z,100802.16
2023-02-09T02:24:02.128Z,100803.16
2023-02-09T02:26:42.390Z,100804.97
2023-02-09T02:29:27.802Z,100797.25
2023-02-09T02:32:11.484Z,100794.16
2023-02-09T02:34:57.805Z,100803.41
2023-02-09T02:37:41.273Z,100807.91
2023-02-09T02:40:29.131Z,100794.75
2023-02-09T02:43:22.979Z,100792.63
2023-02-09T02:46:23.293Z,100788.03
2023-02-09T02:48:58.723Z,100798.88
2023-02-09T02:51:49.892Z,100789.28
2023-02-09T02:54:29.915Z,100803.91
2023-02-09T02:57:06.234Z,100796.00
2023-02-09T02:59:41.149Z,100803.06
2023-02-09T03:02:25.551Z,100794.75
2023-02-09T03:04:58.911Z,100799.97
2023-02-09T03:07:30.181Z,100794.84
2023-02-09T03:10:03.052Z,100801.91
2023-02-09T03:12:58.732Z,100800.56
2023-02-09T03:15:32.877Z,100801.47
2023-02-09T03:18:32.073Z,100774.75
2023-02-09T03:21:21.493Z,100782.91
2023-02-09T03:24:08.404Z,100797.06
2023-02-09T03:26:47.921Z,100784.44
2023-02-09T03:29:20.209Z,100783.63
2023-02-09T03:31:51.985Z,100795.69
2023-02-09T03:34:23.294Z,100784.13
2023-02-09T03:36:54.689Z,100792.09
2023-02-09T03:39:25.961Z,100790.53
2023-02-09T03:41:57.044Z,100791.44
2023-02-09T03:44:28.705Z,100795.50
2023-02-09T03:47:02.260Z,100797.97
2023-02-09T03:49:36.291Z,100788.03
2023-02-09T03:52:10.217Z,100774.13
2023-02-09T03:54:42.120Z,100791.09
2023-02-09T03:57:14.140Z,100787.03
2023-02-09T03:59:45.357Z,100792.41
2023-02-09T04:02:16.486Z,100793.88
2023-02-09T04:04:47.617Z,100787.84
2023-02-09T04:07:19.150Z,100790.28
2023-02-09T04:09:50.356Z,100787.84
2023-02-09T04:12:21.550Z,100801.94
2023-02-09T04:14:52.961Z,100766.53
2023-02-09T04:17:23.952Z,100802.75
2023-02-09T04:19:54.929Z,100784.94
2023-02-09T04:22:26.044Z,100784.13
2023-02-09T04:24:57.231Z,100789.03
2023-02-09T04:27:29.826Z,100793.38
2023-02-09T04:30:01.205Z,100782.69
2023-02-09T04:32:33.935Z,100796.28
2023-02-09T04:35:04.942Z,100797.25
2023-02-09T04:37:35.967Z,100792.56
2023-02-09T04:40:07.924Z,100795.44
2023-02-09T04:42:39.006Z,100793.22
2023-02-09T04:47:40.467Z,100787.38
2023-02-09T04:50:11.770Z,100793.56
2023-02-09T04:52:43.132Z,100790.94
2023-02-09T04:55:14.544Z,100799.63
2023-02-09T04:58:04.514Z,100777.69
2023-02-09T05:00:35.848Z,100797.59
2023-02-09T05:03:07.133Z,100776.69
2023-02-09T05:05:42.264Z,100776.34
2023-02-09T05:08:13.620Z,100764.38
2023-02-09T05:10:45.000Z,100782.66
2023-02-09T05:13:16.147Z,100785.50
2023-02-09T05:15:47.218Z,100797.13
2023-02-09T05:18:18.120Z,100782.66
2023-02-09T05:20:50.044Z,100777.50
2023-02-09T05:23:21.413Z,100781.84
2023-02-09T05:25:52.885Z,100784.91
2023-02-09T05:28:24.508Z,100776.25
2023-02-09T05:30:56.246Z,100771.59
2023-02-09T05:33:27.757Z,100789.38
2023-02-09T05:35:58.327Z,100791.09
2023-02-09T05:38:29.787Z,100801.78
2023-02-09T05:41:05.039Z,100787.94
2023-02-09T05:43:36.777Z,100798.13
2023-02-09T05:46:08.636Z,100804.78
2023-02-09T05:48:39.859Z,100802.25
2023-02-09T05:51:11.028Z,100803.94
2023-02-09T05:53:42.191Z,100805.31
2023-02-09T05:56:13.468Z,100807.59
2023-02-09T05:58:45.257Z,100806.38
2023-02-09T06:01:16.493Z,100811.47
2023-02-09T06:03:47.705Z,100824.97
2023-02-09T06:06:18.815Z,100817.50
2023-02-09T06:08:49.807Z,100823.94
2023-02-09T06:11:20.808Z,100819.19
2023-02-09T06:13:51.871Z,100824.69
2023-02-09T06:16:23.097Z,100830.94
2023-02-09T06:18:54.399Z,100833.56
2023-02-09T06:21:27.401Z,100835.91
2023-02-09T06:24:02.909Z,100840.78
2023-02-09T06:26:35.346Z,100844.16
2023-02-09T06:29:06.693Z,100849.09
2023-02-09T06:31:38.157Z,100852.84
2023-02-09T06:34:09.924Z,100847.69
2023-02-09T06:36:41.415Z,100853.16
2023-02-09T06:39:13.396Z,100837.75
2023-02-09T06:41:44.779Z,100854.66
2023-02-09T06:44:16.032Z,100857.53
2023-02-09T06:46:47.513Z,100872.31
2023-02-09T06:49:19.007Z,100868.97
2023-02-09T06:51:50.840Z,100865.06
2023-02-09T06:54:22.280Z,100867.56
2023-02-09T06:56:55.007Z,100870.75
2023-02-09T06:59:26.788Z,100872.66
2023-02-09T07:01:58.110Z,100849.66
2023-02-09T07:04:29.483Z,100876.88
2023-02-09T07:07:00.487Z,100876.94
2023-02-09T07:09:31.579Z,100875.41
2023-02-09T07:12:05.618Z,100890.97
2023-02-09T07:14:36.607Z,100894.91
2023-02-09T07:17:07.749Z,100902.41
2023-02-09T07:19:38.868Z,100896.41
2023-02-09T07:22:10.244Z,100907.44
2023-02-09T07:24:41.415Z,100906.84
2023-02-09T07:27:12.437Z,100910.94
2023-02-09T07:29:43.585Z,100915.63
2023-02-09T07:32:15.123Z,100923.47
2023-02-09T07:34:46.652Z,100916.59
2023-02-09T07:37:17.927Z,100925.97
2023-02-09T07:39:48.891Z,100909.59
2023-02-09T07:42:20.785Z,100923.91
2023-02-09T07:44:59.944Z,100924.63
2023-02-09T07:47:33.384Z,100939.78
2023-02-09T07:50:04.597Z,100918.03
2023-02-09T07:52:35.761Z,100940.81
2023-02-09T07:55:08.953Z,100936.69
2023-02-09T07:57:40.168Z,100944.84
2023-02-09T08:00:13.081Z,100954.88
2023-02-09T08:02:48.671Z,100957.94
2023-02-09T08:05:28.980Z,100953.72
2023-02-09T08:08:00.264Z,100972.97
2023-02-09T08:10:31.635Z,100967.34
2023-02-09T08:13:03.986Z,100976.59
2023-02-09T08:15:47.948Z,100982.06
2023-02-09T08:18:25.656Z,100986.59
2023-02-09T08:20:56.841Z,100992.94
2023-02-09T08:23:32.050Z,100977.53
2023-02-09T08:26:06.698Z,101005.31
2023-02-09T08:28:44.312Z,101000.16
2023-02-09T08:31:18.593Z,101003.88
2023-02-09T08:33:51.251Z,101008.78
2023-02-09T08:36:23.237Z,101015.97
2023-02-09T08:38:54.781Z,101025.50
2023-02-09T08:41:25.776Z,101008.88
2023-02-09T08:43:57.089Z,101030.97
2023-02-09T08:46:28.597Z,101031.22
2023-02-09T08:48:59.878Z,101037.78
2023-02-09T08:51:31.283Z,101045.69
2023-02-09T08:54:02.504Z,101039.66
2023-02-09T08:56:33.745Z,101044.59
2023-02-09T08:59:05.274Z,101047.59
2023-02-09T09:01:36.286Z,101062.28
2023-02-09T09:04:08.116Z,101066.63
2023-02-09T09:06:39.474Z,101075.91
2023-02-09T09:09:10.693Z,101076.97
2023-02-09T09:11:41.922Z,101078.09
2023-02-09T09:14:12.861Z,101088.41
2023-02-09T09:16:44.028Z,101075.09
2023-02-09T09:19:15.781Z,101078.63
2023-02-09T09:21:47.064Z,101097.13
2023-02-09T09:24:18.248Z,101106.94
2023-02-09T09:26:49.384Z,101102.31
2023-02-09T09:29:20.981Z,101102.84
2023-02-09T09:31:52.372Z,101111.25
2023-02-09T09:34:23.207Z,101113.44
2023-02-09T09:36:54.264Z,101113.44
2023-02-09T09:39:27.060Z,101113.19
2023-02-09T09:42:02.077Z,101099.31
2023-02-09T09:44:44.744Z,101115.63
2023-02-09T09:47:21.394Z,101115.63
2023-02-09T09:49:52.562Z,101118.59
2023-02-09T09:52:43.985Z,101126.75
2023-02-09T09:55:23.923Z,101121.06
2023-02-09T09:57:56.530Z,101134.38
2023-02-09T10:00:40.701Z,101115.63
2023-02-09T10:03:21.652Z,101132.72
2023-02-09T10:05:58.245Z,101135.72
2023-02-09T10:08:49.206Z,101140.38
2023-02-09T10:11:26.051Z,101125.66
2023-02-09T10:13:59.282Z,101142.53
2023-02-09T10:16:39.568Z,101152.06
2023-02-09T10:19:34.297Z,101150.66
2023-02-09T10:22:15.232Z,101144.88
2023-02-09T10:24:46.427Z,101159.00
2023-02-09T10:27:30.056Z,101169.94
2023-02-09T10:30:22.564Z,101168.56
2023-02-09T10:32:54.041Z,101175.41
2023-02-09T10:35:49.294Z,101173.22
2023-02-09T10:38:22.888Z,101179.75
2023-02-09T10:40:54.240Z,101180.47
2023-02-09T10:43:34.858Z,101179.06
2023-02-09T10:46:14.470Z,101182.88
2023-02-09T10:48:47.859Z,101181.19
2023-02-09T10:51:31.460Z,101183.72
2023-02-09T10:54:06.074Z,101187.19
2023-02-09T10:56:48.778Z,101189.88
2023-02-09T10:59:25.202Z,101189.13
2023-02-09T11:02:04.206Z,101200.47
2023-02-09T11:04:43.001Z,101200.19
2023-02-09T11:07:18.608Z,101199.84
2023-02-09T11:09:54.530Z,101199.34
2023-02-09T11:12:29.258Z,101209.28
2023-02-09T11:15:00.343Z,101197.09
2023-02-09T11:17:38.853Z,101211.13
2023-02-09T11:20:38.677Z,101212.78
2023-02-09T11:23:24.627Z,101214.59
2023-02-09T11:25:57.226Z,101217.41
2023-02-09T11:28:31.011Z,101221.53
2023-02-09T11:31:22.046Z,101222.94
2023-02-09T11:34:22.922Z,101225.53
2023-02-09T11:37:24.850Z,101225.03
2023-02-09T11:40:32.217Z,101230.63
2023-02-09T11:43:30.830Z,101238.50
2023-02-09T11:46:21.888Z,101245.09
2023-02-09T11:49:06.883Z,101234.84
2023-02-09T11:51:40.998Z,101244.28
2023-02-09T11:54:27.406Z,101224.03
2023-02-09T11:57:09.669Z,101252.19
2023-02-09T11:59:45.985Z,101256.00
2023-02-09T12:02:23.721Z,101261.34
2023-02-09T12:05:03.151Z,101259.25
2023-02-09T12:07:37.404Z,101259.00
2023-02-09T12:10:29.728Z,101265.19
2023-02-09T12:13:24.950Z,101260.84
2023-02-09T12:16:03.116Z,101263.25
2023-02-09T12:18:35.893Z,101263.03
2023-02-09T12:21:08.473Z,101263.63
2023-02-09T12:23:43.268Z,101263.97
2023-02-09T12:26:14.572Z,101264.28
2023-02-09T12:29:05.886Z,101268.69
2023-02-09T12:32:05.629Z,101271.78
2023-02-09T12:34:51.053Z,101263.03
2023-02-09T12:37:30.390Z,101264.19
2023-02-09T12:40:19.775Z,101266.53
2023-02-09T12:42:55.568Z,101258.66
2023-02-09T12:45:38.829Z,101256.41
2023-02-09T12:48:16.113Z,101246.88
2023-02-09T12:50:48.445Z,101242.97
2023-02-09T12:53:25.999Z,101239.47
2023-02-09T12:56:07.352Z,101238.94
2023-02-09T12:59:04.432Z,101246.69
2023-02-09T13:02:09.218Z,101246.09
2023-02-09T13:05:00.283Z,101236.91
2023-02-09T13:07:55.110Z,101252.56
2023-02-09T13:10:38.319Z,101249.34
2023-02-09T13:13:37.272Z,101250.34
2023-02-09T13:16:35.791Z,101257.22
2023-02-09T13:19:48.049Z,101256.78
2023-02-09T13:22:32.678Z,101253.69
2023-02-09T13:25:11.631Z,101258.41
2023-02-09T13:27:49.301Z,101253.41
2023-02-09T13:30:34.415Z,101256.13
2023-02-09T13:33:23.732Z,101260.44
2023-02-09T13:35:55.009Z,101259.91
2023-02-09T13:38:30.904Z,101243.94
2023-02-09T13:41:04.871Z,101260.78
2023-02-09T13:43:39.741Z,101272.91
2023-02-09T13:46:29.880Z,101252.47
2023-02-09T13:49:21.448Z,101269.56
2023-02-09T13:52:11.460Z,101276.41
2023-02-09T13:54:43.382Z,101282.00
2023-02-09T13:57:37.772Z,101291.44
2023-02-09T14:00:28.341Z,101281.13
2023-02-09T14:03:06.233Z,101264.88
2023-02-09T14:05:48.982Z,101285.78
2023-02-09T14:08:21.674Z,101271.69
2023-02-09T14:11:02.321Z,101280.16
2023-02-09T14:13:38.762Z,101282.31
2023-02-09T14:16:10.537Z,101282.22
2023-02-09T14:18:57.152Z,101289.75
2023-02-09T14:21:32.497Z,101281.53
2023-02-09T14:24:20.167Z,101277.09
2023-02-09T14:27:08.491Z,101263.28
2023-02-09T14:29:40.526Z,101273.72
2023-02-09T14:32:32.314Z,101281.13
2023-02-09T14:35:34.946Z,101285.16
2023-02-09T14:38:06.206Z,101281.50
2023-02-09T14:40:38.789Z,101288.59
2023-02-09T14:43:12.706Z,101302.19
2023-02-09T14:45:49.485Z,101278.16
2023-02-09T14:48:28.783Z,101293.78
2023-02-09T14:51:28.905Z,101300.03
2023-02-09T14:53:59.928Z,101302.63
2023-02-09T14:56:36.635Z,101309.88
2023-02-09T14:59:10.926Z,101303.94
2023-02-09T15:01:42.216Z,101307.66
2023-02-09T15:04:16.805Z,101305.91
2023-02-09T15:06:50.656Z,101307.63
2023-02-09T15:09:33.963Z,101303.47
2023-02-09T15:12:06.574Z,101304.31
2023-02-09T15:14:48.421Z,101296.69
2023-02-09T15:17:22.518Z,101310.84
2023-02-09T15:19:54.205Z,101312.03
2023-02-09T15:22:26.132Z,101291.56
2023-02-09T15:24:57.366Z,101304.78
2023-02-09T15:27:35.612Z,101302.34
2023-02-09T15:30:19.545Z,101306.53
2023-02-09T15:32:51.265Z,101300.72
2023-02-09T15:35:22.974Z,101298.06
2023-02-09T15:38:03.952Z,101310.31
2023-02-09T15:41:05.685Z,101304.75
2023-02-09T15:43:55.124Z,101314.34
2023-02-09T15:46:44.426Z,101323.22
2023-02-09T15:49:15.683Z,101311.06
2023-02-09T15:51:46.902Z,101310.44
2023-02-09T15:54:21.437Z,101324.34
2023-02-09T15:56:52.888Z,101323.78
2023-02-09T15:59:25.783Z,101315.91
2023-02-09T16:02:00.447Z,101317.78
2023-02-09T16:04:31.808Z,101331.34
2023-02-09T16:07:02.897Z,101332.50
2023-02-09T16:09:36.108Z,101330.91
2023-02-09T16:12:11.422Z,101334.47
2023-02-09T16:14:42.379Z,101328.63
2023-02-09T16:17:13.646Z,101332.75
2023-02-09T16:19:47.333Z,101327.16
2023-02-09T16:22:18.867Z,101317.97
2023-02-09T16:24:50.848Z,101340.03
2023-02-09T16:27:29.739Z,101343.91
2023-02-09T16:30:01.527Z,101343.88
2023-02-09T16:32:33.018Z,101348.31
2023-02-09T16:35:16.335Z,101349.88
2023-02-09T16:37:50.220Z,101361.91
2023-02-09T16:40:24.187Z,101362.53
2023-02-09T16:42:56.110Z,101372.00
2023-02-09T16:45:28.138Z,101376.72
2023-02-09T16:48:01.147Z,101374.56
2023-02-09T16:50:39.429Z,101376.53
2023-02-09T16:53:42.174Z,101388.84
2023-02-09T16:56:16.975Z,101383.28
2023-02-09T16:58:49.017Z,101392.31
2023-02-09T17:01:20.707Z,101392.41
2023-02-09T17:03:54.107Z,101384.03
2023-02-09T17:06:27.334Z,101390.84
2023-02-09T17:09:00.163Z,101401.09
2023-02-09T17:11:32.060Z,101391.59
2023-02-09T17:14:03.297Z,101404.66
2023-02-09T17:16:36.966Z,101412.75
2023-02-09T17:19:13.403Z,101421.00
2023-02-09T17:21:45.014Z,101420.88
2023-02-09T17:24:17.775Z,101424.88
2023-02-09T17:26:49.928Z,101427.59
2023-02-09T17:29:23.449Z,101426.53
2023-02-09T17:31:54.611Z,101437.34
2023-02-09T17:34:28.478Z,101427.00
2023-02-09T17:37:00.388Z,101436.22
2023-02-09T17:39:30.961Z,101450.53
2023-02-09T17:42:02.836Z,101443.38
2023-02-09T17:44:45.707Z,101452.97
2023-02-09T17:47:22.075Z,101453.63
2023-02-09T17:49:53.452Z,101465.81
2023-02-09T17:52:24.383Z,101462.63
2023-02-09T17:54:55.899Z,101466.19
2023-02-09T17:57:28.976Z,101473.22
2023-02-09T18:00:00.530Z,101476.03
2023-02-09T18:02:34.892Z,101481.09
2023-02-09T18:05:05.893Z,101483.09
2023-02-09T18:07:36.536Z,101491.66
2023-02-09T18:10:08.457Z,101496.47
2023-02-09T18:12:40.477Z,101492.72
2023-02-09T18:15:35.007Z,101482.13
2023-02-09T18:18:06.597Z,101498.13
2023-02-09T18:20:38.741Z,101500.81
2023-02-09T18:23:10.438Z,101502.38
2023-02-09T18:25:41.877Z,101498.44
2023-02-09T18:28:13.097Z,101512.03
2023-02-09T18:30:45.419Z,101515.25
2023-02-09T18:33:17.998Z,101506.78
2023-02-09T18:35:49.470Z,101487.50
2023-02-09T18:38:31.585Z,101490.41
2023-02-09T18:41:06.374Z,101491.78
2023-02-09T18:43:37.605Z,101497.06
2023-02-09T18:46:20.975Z,101498.94
2023-02-09T18:48:55.877Z,101496.38
2023-02-09T18:51:27.611Z,101504.50
2023-02-09T18:53:59.540Z,101500.78
2023-02-09T18:56:31.075Z,101497.47
2023-02-09T18:59:02.223Z,101491.44
2023-02-09T19:01:33.636Z,101509.06
2023-02-09T19:04:05.232Z,101505.94
2023-02-09T19:06:36.966Z,101516.78
2023-02-09T19:09:08.142Z,101512.88
2023-02-09T19:11:39.214Z,101517.06
2023-02-09T19:14:29.174Z,101514.22
2023-02-09T19:17:00.728Z,101516.00
2023-02-09T19:19:32.013Z,101524.91
2023-02-09T19:22:03.565Z,101521.16
2023-02-09T19:24:34.492Z,101522.84
2023-02-09T19:27:08.181Z,101519.69
2023-02-09T19:29:49.898Z,101520.53
2023-02-09T19:32:37.636Z,101519.44
2023-02-09T19:35:09.095Z,101525.22
2023-02-09T19:41:08.611Z,101527.31
2023-02-09T19:43:44.193Z,101514.28
2023-02-09T19:46:23.124Z,101532.50
2023-02-09T19:48:59.022Z,101535.47
2023-02-09T19:51:30.268Z,101503.44
2023-02-09T19:54:01.670Z,101533.06
2023-02-09T19:56:33.042Z,101512.25
2023-02-09T19:59:05.362Z,101527.28
2023-02-09T20:01:36.995Z,101522.88
2023-02-09T20:04:09.023Z,101522.47
2023-02-09T20:06:44.199Z,101520.28
2023-02-09T20:09:23.479Z,101520.44
2023-02-09T20:14:33.465Z,101521.38
2023-02-09T20:17:05.187Z,101501.66
2023-02-09T20:19:38.648Z,101507.41
2023-02-09T20:22:10.094Z,101500.47
2023-02-09T20:24:41.808Z,101501.66
2023-02-09T20:27:13.319Z,101503.09
2023-02-09T20:29:44.816Z,101509.22
2023-02-09T20:32:16.108Z,101520.72
2023-02-09T20:34:47.566Z,101526.06
2023-02-09T20:37:21.353Z,101529.47
2023-02-09T20:39:53.477Z,101524.72
2023-02-09T20:42:42.890Z,101524.38
2023-02-09T20:45:36.253Z,101519.84
2023-02-09T20:48:07.618Z,101508.00
2023-02-09T20:50:38.706Z,101517.47
2023-02-09T20:53:09.782Z,101525.41
2023-02-09T20:55:41.003Z,101525.53
2023-02-09T20:58:14.807Z,101538.22
2023-02-09T21:00:46.101Z,101511.72
2023-02-09T21:03:16.882Z,101523.47
2023-02-09T21:05:48.148Z,101518.91
2023-02-09T21:08:19.383Z,101513.84
2023-02-09T21:11:00.421Z,101512.81
2023-02-09T21:13:31.508Z,101519.41
2023-02-09T21:16:04.183Z,101519.81
2023-02-09T21:18:35.927Z,101522.25
2023-02-09T21:21:09.661Z,101523.81
2023-02-09T21:23:41.098Z,101524.75
2023-02-09T21:26:14.607Z,101527.78
2023-02-09T21:28:46.769Z,101528.91
2023-02-09T21:31:23.986Z,101516.47
2023-02-09T21:33:55.012Z,101520.16
2023-02-09T21:36:26.110Z,101529.84
2023-02-09T21:38:57.269Z,101524.84
2023-02-09T21:41:47.066Z,101513.03
2023-02-09T21:44:18.235Z,101510.09
2023-02-09T21:46:51.048Z,101526.78
2023-02-09T21:49:22.345Z,101519.94
2023-02-09T21:51:53.535Z,101527.47
2023-02-09T21:54:28.009Z,101512.03
2023-02-09T21:56:59.127Z,101518.31
2023-02-09T21:59:30.697Z,101512.28
2023-02-09T22:02:01.090Z,101506.94
2023-02-09T22:04:32.401Z,101503.84
2023-02-09T22:07:03.417Z,101509.84
2023-02-09T22:09:34.483Z,101507.75
2023-02-09T22:12:06.314Z,101510.31
2023-02-09T22:14:37.572Z,101507.63
2023-02-09T22:17:09.194Z,101506.16
2023-02-09T22:19:40.596Z,101494.38
2023-02-09T22:22:12.616Z,101491.34
2023-02-09T22:24:43.877Z,101501.78
2023-02-09T22:27:14.955Z,101505.72
2023-02-09T22:29:47.701Z,101505.25
2023-02-09T22:32:19.107Z,101498.47
2023-02-09T22:34:50.142Z,101484.28
2023-02-09T22:37:21.433Z,101508.66
2023-02-09T22:39:52.353Z,101495.22
2023-02-09T22:42:23.316Z,101497.19
2023-02-09T22:47:25.811Z,101490.38
2023-02-09T22:49:57.116Z,101480.25
2023-02-09T22:52:28.516Z,101460.41
2023-02-09T22:55:00.688Z,101480.56
2023-02-09T22:57:33.290Z,101481.06
2023-02-09T23:00:04.373Z,101490.31
2023-02-09T23:02:35.525Z,101486.69
2023-02-09T23:05:06.896Z,101486.31
2023-02-09T23:07:38.254Z,101488.31
2023-02-09T23:10:09.268Z,101496.47
2023-02-09T23:12:40.516Z,101491.81
2023-02-09T23:15:11.873Z,101486.56
2023-02-09T23:17:43.374Z,101494.56
2023-02-09T23:20:14.483Z,101496.28
2023-02-09T23:22:45.100Z,101498.13
2023-02-09T23:25:16.671Z,101491.06
2023-02-09T23:27:47.771Z,101480.97
2023-02-09T23:30:19.459Z,101487.13
2023-02-09T23:32:50.714Z,101499.44
2023-02-09T23:35:23.489Z,101497.69
2023-02-09T23:37:55.152Z,101498.09
2023-02-09T23:40:29.759Z,101491.13
2023-02-09T23:43:00.990Z,101495.84
2023-02-09T23:45:32.133Z,101496.88
2023-02-09T23:48:03.144Z,101501.31
2023-02-09T23:50:34.471Z,101491.88
2023-02-09T23:53:05.757Z,101503.91
2023-02-09T23:55:37.708Z,101509.28
2023-02-09T23:58:08.015Z,101497.94
